Time;durP1;ratioP1;P1;durP2;ratioP2;P2;SDS_P1;SDS_P2;PMS_P1;PMS_P2;Temp;Humidity;BMP_temperature;BMP_pressure;BME280_temperature;BME280_humidity;BME280_pressure;Samples;Min_cycle;Max_cycle;Signal;HPM_P1;HPM_P2
2023/04/07 00:01:42;;;;;;;24.58;14.45;;;7.00;99.90;;;;;;5087999;28;20119;-77
2023/04/07 00:04:08;;;;;;;26.35;15.18;;;7.00;99.90;;;;;;5094240;28;20035;-77
2023/04/07 00:06:34;;;;;;;24.10;14.38;;;7.00;99.90;;;;;;5085864;28;20042;-77
2023/04/07 00:09:00;;;;;;;24.40;15.40;;;7.00;99.90;;;;;;5084196;28;20046;-78
2023/04/07 00:11:26;;;;;;;23.27;15.52;;;7.20;99.90;;;;;;5095267;28;20082;-78
2023/04/07 00:13:51;;;;;;;22.60;14.73;;;7.00;99.90;;;;;;5094606;28;20040;-77
2023/04/07 00:16:17;;;;;;;23.50;13.98;;;7.00;99.90;;;;;;5092488;28;20051;-77
2023/04/07 00:18:43;;;;;;;22.73;13.73;;;7.00;99.90;;;;;;5088833;28;20472;-78
2023/04/07 00:21:08;;;;;;;23.98;15.68;;;7.00;99.90;;;;;;5090339;28;20044;-77
2023/04/07 00:23:34;;;;;;;23.90;15.40;;;7.00;99.90;;;;;;5080394;28;20413;-78
2023/04/07 00:26:00;;;;;;;24.92;15.65;;;7.00;99.90;;;;;;5094032;28;20048;-77
2023/04/07 00:28:26;;;;;;;24.20;15.07;;;7.00;99.90;;;;;;5093824;28;20047;-77
2023/04/07 00:30:51;;;;;;;29.70;16.35;;;7.00;99.90;;;;;;5093047;28;20043;-77
2023/04/07 00:33:17;;;;;;;23.48;14.77;;;7.00;99.90;;;;;;5084645;28;20036;-77
2023/04/07 00:35:42;;;;;;;25.35;15.73;;;7.20;99.90;;;;;;5079121;28;20085;-77
2023/04/07 00:38:08;;;;;;;22.63;14.80;;;7.00;99.90;;;;;;5086490;28;20128;-77
2023/04/07 00:40:34;;;;;;;23.52;14.63;;;7.00;99.90;;;;;;5093291;28;20085;-77
2023/04/07 00:42:59;;;;;;;22.75;14.40;;;6.90;99.90;;;;;;5089414;28;20119;-78
2023/04/07 00:45:25;;;;;;;23.55;15.15;;;7.00;99.90;;;;;;5092297;28;20054;-77
2023/04/07 00:47:51;;;;;;;23.50;14.30;;;7.00;99.90;;;;;;5091095;28;20028;-77
2023/04/07 00:50:17;;;;;;;24.83;15.90;;;6.90;99.90;;;;;;5094262;28;20055;-77
2023/04/07 00:52:44;;;;;;;27.38;16.33;;;7.00;99.90;;;;;;5094594;28;20093;-78
2023/04/07 00:55:10;;;;;;;;;;;7.50;99.90;;;;;;5108543;28;20114;-77
2023/04/07 00:57:36;;;;;;;24.80;15.30;;;7.70;99.90;;;;;;5114665;28;20407;-77
2023/04/07 01:00:05;;;;;;;23.80;15.32;;;6.90;99.90;;;;;;5114665;28;20411;-77
2023/04/07 01:02:47;;;;;;;24.08;15.10;;;7.00;99.90;;;;;;5114410;28;20502;-78
2023/04/07 01:05:45;;;;;;;26.23;15.35;;;7.00;99.90;;;;;;5110027;28;20047;-77
2023/04/07 01:08:11;;;;;;;29.30;16.65;;;7.00;99.90;;;;;;5086874;28;20059;-77
2023/04/07 01:10:40;;;;;;;25.85;15.80;;;7.00;99.90;;;;;;5094946;28;20415;-77
2023/04/07 01:13:20;;;;;;;23.75;14.98;;;7.00;99.90;;;;;;5094320;28;20134;-77
2023/04/07 01:15:51;;;;;;;25.13;15.75;;;7.00;99.90;;;;;;5093105;28;20101;-77
2023/04/07 01:18:27;;;;;;;26.42;16.92;;;7.00;99.90;;;;;;5094083;28;20086;-77
2023/04/07 01:20:58;;;;;;;27.85;16.58;;;7.10;99.90;;;;;;5076546;28;20048;-77
2023/04/07 01:23:48;;;;;;;28.58;17.27;;;7.00;99.90;;;;;;5086424;28;20403;-77
2023/04/07 01:26:32;;;;;;;27.05;15.88;;;7.00;99.90;;;;;;5086527;28;20040;-77
2023/04/07 01:29:33;;;;;;;27.88;17.13;;;7.00;99.90;;;;;;5093174;28;20048;-77
2023/04/07 01:32:00;;;;;;;28.33;16.75;;;7.00;99.90;;;;;;5087929;28;20507;-77
2023/04/07 01:34:30;;;;;;;26.13;16.38;;;7.00;99.90;;;;;;5091208;28;20071;-77
2023/04/07 01:36:58;;;;;;;28.23;15.98;;;7.10;99.90;;;;;;5087528;28;20043;-78
2023/04/07 01:39:26;;;;;;;26.85;16.58;;;7.00;99.90;;;;;;5091585;28;20044;-77
2023/04/07 01:41:53;;;;;;;29.58;17.90;;;7.00;99.90;;;;;;5090000;28;20040;-77
2023/04/07 01:44:20;;;;;;;29.90;17.48;;;6.90;99.90;;;;;;5096568;28;20110;-77
2023/04/07 01:46:46;;;;;;;30.35;18.10;;;7.00;99.90;;;;;;5082379;28;20114;-77
2023/04/07 01:49:13;;;;;;;31.73;17.52;;;6.90;99.90;;;;;;5092452;28;20377;-77
2023/04/07 01:51:40;;;;;;;33.28;17.92;;;6.90;99.90;;;;;;5087412;28;20046;-77
2023/04/07 01:54:07;;;;;;;30.10;17.13;;;6.90;99.90;;;;;;5085963;28;20033;-78
2023/04/07 01:56:32;;;;;;;;;;;7.70;99.90;;;;;;5068988;28;20094;-78
2023/04/07 01:58:58;;;;;;;27.83;17.08;;;6.90;99.90;;;;;;5070866;28;19920;-77
2023/04/07 02:01:24;;;;;;;31.38;16.10;;;7.50;99.90;;;;;;5084680;28;20067;-77
2023/04/07 02:03:53;;;;;;;28.10;16.88;;;7.50;99.90;;;;;;5078780;28;20072;-77
2023/04/07 02:06:23;;;;;;;29.67;17.48;;;6.90;99.90;;;;;;5086942;28;20052;-77
2023/04/07 02:08:55;;;;;;;31.55;18.50;;;6.90;99.90;;;;;;5089924;28;20098;-77
2023/04/07 02:11:22;;;;;;;26.55;17.48;;;6.90;99.90;;;;;;5086763;28;20048;-78
2023/04/07 02:13:51;;;;;;;30.85;18.33;;;6.90;99.90;;;;;;5080491;28;20129;-78
2023/04/07 02:16:17;;;;;;;25.08;16.45;;;6.80;99.90;;;;;;5090454;28;20048;-77
2023/04/07 02:18:45;;;;;;;26.88;16.30;;;6.90;99.90;;;;;;5100935;28;20097;-79
2023/04/07 02:21:12;;;;;;;29.40;17.27;;;6.90;99.90;;;;;;5080328;27;20055;-78
2023/04/07 02:23:38;;;;;;;27.40;17.25;;;6.90;99.90;;;;;;5079968;28;20048;-77
2023/04/07 02:26:03;;;;;;;27.92;15.93;;;6.90;99.90;;;;;;5095928;28;20046;-77
2023/04/07 02:28:29;;;;;;;29.17;16.55;;;6.90;99.90;;;;;;5077605;28;20040;-77
2023/04/07 02:30:55;;;;;;;27.40;16.90;;;6.90;99.90;;;;;;5092844;28;20094;-76
2023/04/07 02:33:20;;;;;;;27.58;16.83;;;6.90;99.90;;;;;;5094752;28;20101;-76
2023/04/07 02:35:46;;;;;;;27.05;15.98;;;6.90;99.90;;;;;;5091570;28;20086;-76
2023/04/07 02:38:11;;;;;;;28.77;16.42;;;7.00;99.90;;;;;;5093381;28;20045;-77
2023/04/07 02:40:37;;;;;;;28.27;17.85;;;6.90;99.90;;;;;;5093141;28;20051;-77
2023/04/07 02:43:04;;;;;;;26.85;17.67;;;6.90;99.90;;;;;;5095634;28;20040;-76
2023/04/07 02:45:30;;;;;;;27.80;17.02;;;6.90;99.90;;;;;;5093622;28;20092;-77
2023/04/07 02:47:55;;;;;;;27.73;17.63;;;6.90;99.90;;;;;;5091149;28;20044;-77
2023/04/07 02:50:21;;;;;;;31.67;17.77;;;6.90;99.90;;;;;;5092317;28;20057;-77
2023/04/07 02:52:46;;;;;;;28.33;17.17;;;6.90;99.90;;;;;;5091780;28;20036;-78
2023/04/07 02:55:12;;;;;;;30.20;17.48;;;6.90;99.90;;;;;;5095953;28;20092;-77
2023/04/07 02:57:38;;;;;;;25.90;15.90;;;6.90;99.90;;;;;;5096717;28;20511;-77
2023/04/07 03:00:04;;;;;;;28.48;17.23;;;7.00;99.90;;;;;;5096663;28;20055;-77
2023/04/07 03:02:29;;;;;;;29.58;17.10;;;6.90;99.90;;;;;;5096704;28;20514;-77
2023/04/07 03:04:55;;;;;;;27.15;17.15;;;6.90;99.90;;;;;;5110688;28;20079;-77
2023/04/07 03:07:21;;;;;;;29.42;18.08;;;6.90;99.90;;;;;;5097033;28;20504;-77
2023/04/07 03:09:46;;;;;;;29.65;18.15;;;7.00;99.90;;;;;;5097271;28;20051;-77
2023/04/07 03:12:12;;;;;;;33.15;18.55;;;7.00;99.90;;;;;;5096580;28;20040;-77
2023/04/07 03:14:38;;;;;;;28.75;16.73;;;6.90;99.90;;;;;;5095553;28;20463;-77
2023/04/07 03:17:03;;;;;;;30.00;17.25;;;6.90;99.90;;;;;;5096353;28;20052;-77
2023/04/07 03:19:29;;;;;;;27.45;16.50;;;7.50;99.90;;;;;;5084679;28;20401;-77
2023/04/07 03:21:55;;;;;;;31.58;17.35;;;7.00;99.90;;;;;;5079268;28;20044;-77
2023/04/07 03:24:20;;;;;;;26.30;15.77;;;7.00;99.90;;;;;;5091393;28;20408;-77
2023/04/07 03:26:46;;;;;;;27.80;16.45;;;7.00;99.90;;;;;;5083952;28;20037;-77
2023/04/07 03:29:11;;;;;;;28.70;17.35;;;7.00;99.90;;;;;;5085253;28;20058;-77
2023/04/07 03:31:37;;;;;;;30.17;16.55;;;6.90;99.90;;;;;;5092979;28;20071;-78
2023/04/07 03:34:04;;;;;;;26.30;16.88;;;6.90;99.90;;;;;;5089452;28;20040;-77
2023/04/07 03:36:30;;;;;;;29.20;17.30;;;6.90;99.90;;;;;;5084325;28;20119;-78
2023/04/07 03:38:56;;;;;;;25.83;16.20;;;6.90;99.90;;;;;;5087177;28;20131;-77
2023/04/07 03:41:22;;;;;;;26.52;16.65;;;6.90;99.90;;;;;;5078302;28;20520;-77
2023/04/07 03:43:48;;;;;;;25.85;16.35;;;6.90;99.90;;;;;;5102906;28;20040;-77
2023/04/07 03:46:14;;;;;;;25.98;16.50;;;6.90;99.90;;;;;;5093143;28;20044;-77
2023/04/07 03:48:40;;;;;;;28.13;16.50;;;6.90;99.90;;;;;;5086644;28;20056;-76
2023/04/07 03:51:06;;;;;;;26.75;16.38;;;6.90;99.90;;;;;;5089987;28;20036;-77
2023/04/07 03:53:32;;;;;;;26.75;15.63;;;6.90;99.90;;;;;;5091842;28;20047;-77
2023/04/07 03:55:57;;;;;;;27.67;16.52;;;7.00;99.90;;;;;;5084259;28;20041;-77
2023/04/07 03:58:23;;;;;;;27.98;17.38;;;6.80;99.90;;;;;;5088073;28;20046;-78
2023/04/07 04:00:49;;;;;;;28.00;16.05;;;6.90;99.90;;;;;;5088869;28;20036;-76
2023/04/07 04:03:14;;;;;;;27.50;15.82;;;6.90;99.90;;;;;;5087088;28;20039;-77
2023/04/07 04:05:40;;;;;;;31.67;16.88;;;6.90;99.90;;;;;;5095291;28;20398;-77
2023/04/07 04:08:06;;;;;;;27.45;16.77;;;6.90;99.90;;;;;;5089227;28;20052;-77
2023/04/07 04:10:31;;;;;;;25.33;15.43;;;6.90;99.90;;;;;;5093969;28;20132;-78
2023/04/07 04:12:59;;;;;;;27.98;15.50;;;6.90;99.90;;;;;;5093057;28;20051;-78
2023/04/07 04:15:25;;;;;;;25.10;15.63;;;6.90;99.90;;;;;;5092920;28;20040;-77
2023/04/07 04:17:51;;;;;;;26.65;16.42;;;6.90;99.90;;;;;;5095124;28;20044;-77
2023/04/07 04:20:17;;;;;;;27.27;15.88;;;7.50;99.90;;;;;;5094878;28;20046;-77
2023/04/07 04:22:42;;;;;;;29.02;15.48;;;6.90;99.90;;;;;;5094056;28;20504;-77
2023/04/07 04:25:08;;;;;;;23.75;16.15;;;6.90;99.90;;;;;;5083239;28;20349;-77
2023/04/07 04:27:34;;;;;;;30.48;15.55;;;6.90;99.90;;;;;;5093448;28;20388;-77
2023/04/07 04:30:00;;;;;;;27.30;16.08;;;6.90;99.90;;;;;;5092006;28;20069;-78
2023/04/07 04:32:25;;;;;;;24.02;15.20;;;6.90;99.90;;;;;;5093734;28;20052;-78
2023/04/07 04:34:51;;;;;;;25.42;15.23;;;6.80;99.90;;;;;;5092085;28;20040;-77
2023/04/07 04:37:17;;;;;;;24.42;14.68;;;6.80;99.90;;;;;;5084298;28;20503;-77
2023/04/07 04:39:42;;;;;;;23.88;15.05;;;6.80;99.90;;;;;;5091225;28;20047;-77
2023/04/07 04:42:08;;;;;;;24.10;15.50;;;6.80;99.90;;;;;;5092313;28;20040;-77
2023/04/07 04:44:34;;;;;;;24.65;14.88;;;6.80;99.90;;;;;;5092268;28;20123;-77
2023/04/07 04:46:59;;;;;;;23.38;14.65;;;6.80;99.90;;;;;;5085424;28;20675;-77
2023/04/07 04:49:25;;;;;;;23.23;14.57;;;6.80;99.90;;;;;;5091174;28;20044;-77
2023/04/07 04:51:51;;;;;;;25.40;14.10;;;6.80;99.90;;;;;;5091893;28;20075;-77
2023/04/07 04:54:18;;;;;;;23.63;14.23;;;6.80;99.90;;;;;;5094423;28;20123;-77
2023/04/07 04:56:44;;;;;;;20.40;13.85;;;7.50;99.90;;;;;;5094362;28;20131;-77
2023/04/07 04:59:09;;;;;;;24.52;14.65;;;6.80;99.90;;;;;;5094157;28;20544;-77
2023/04/07 05:01:35;;;;;;;22.98;14.20;;;6.80;99.90;;;;;;5094380;28;20044;-81
2023/04/07 05:04:01;;;;;;;26.00;14.55;;;7.30;99.90;;;;;;5073043;28;20040;-77
2023/04/07 05:06:26;;;;;;;24.20;14.60;;;6.80;99.90;;;;;;5094483;28;20093;-80
2023/04/07 05:08:53;;;;;;;22.58;13.95;;;6.80;99.90;;;;;;5103987;28;20040;-80
2023/04/07 05:11:18;;;;;;;21.73;13.90;;;6.80;99.90;;;;;;5101797;28;20057;-82
2023/04/07 05:13:44;;;;;;;22.63;13.27;;;6.80;99.90;;;;;;5091205;28;20135;-77
2023/04/07 05:16:10;;;;;;;21.52;14.18;;;6.80;99.90;;;;;;5083229;28;20041;-75
2023/04/07 05:18:36;;;;;;;21.63;13.82;;;6.80;99.90;;;;;;5088977;28;20040;-76
2023/04/07 05:21:01;;;;;;;26.45;14.30;;;6.80;99.90;;;;;;5091504;28;20052;-77
2023/04/07 05:23:27;;;;;;;24.67;15.45;;;6.80;99.90;;;;;;5076122;28;20507;-74
2023/04/07 05:25:52;;;;;;;23.10;13.90;;;6.80;99.90;;;;;;5085175;28;20043;-76
2023/04/07 05:28:19;;;;;;;23.02;14.90;;;6.80;99.90;;;;;;5094152;28;20491;-77
2023/04/07 05:30:44;;;;;;;23.42;15.00;;;6.80;99.90;;;;;;5085371;28;20050;-80
2023/04/07 05:33:10;;;;;;;20.10;13.27;;;6.90;99.90;;;;;;5082016;28;20126;-78
2023/04/07 05:35:36;;;;;;;23.23;14.23;;;6.90;99.90;;;;;;5094970;28;20056;-77
2023/04/07 05:38:02;;;;;;;20.27;12.68;;;6.90;99.90;;;;;;5085021;28;20048;-81
2023/04/07 05:40:29;;;;;;;22.20;13.93;;;6.90;99.90;;;;;;5082350;28;20062;-78
2023/04/07 05:42:55;;;;;;;19.95;13.85;;;6.90;99.90;;;;;;5088277;28;20153;-77
2023/04/07 05:45:21;;;;;;;23.00;14.15;;;6.90;99.90;;;;;;5075462;28;20069;-77
2023/04/07 05:47:48;;;;;;;20.70;14.10;;;6.90;99.90;;;;;;5083112;28;20453;-78
2023/04/07 05:50:19;;;;;;;25.30;15.65;;;6.90;99.90;;;;;;5102097;28;20066;-78
2023/04/07 05:52:45;;;;;;;25.40;14.93;;;6.90;99.90;;;;;;5093503;28;20047;-77
2023/04/07 05:55:11;;;;;;;23.97;14.40;;;6.90;99.90;;;;;;5092967;28;20047;-79
2023/04/07 05:57:37;;;;;;;23.85;13.85;;;6.90;99.90;;;;;;5090765;28;20052;-78
2023/04/07 06:00:03;;;;;;;28.23;14.98;;;6.90;99.90;;;;;;5092885;28;20036;-81
2023/04/07 06:02:29;;;;;;;23.73;15.18;;;6.90;99.90;;;;;;5081988;28;20047;-79
2023/04/07 06:04:55;;;;;;;23.48;14.10;;;6.90;99.90;;;;;;5075820;28;20045;-79
2023/04/07 06:07:20;;;;;;;23.48;14.63;;;7.00;99.90;;;;;;5073801;28;20032;-80
2023/04/07 06:09:46;;;;;;;23.95;14.32;;;7.00;99.90;;;;;;5073207;28;20411;-79
2023/04/07 06:12:12;;;;;;;23.85;14.50;;;7.00;99.90;;;;;;5089266;28;20111;-78
2023/04/07 06:14:38;;;;;;;24.27;14.25;;;7.00;99.90;;;;;;5084764;28;20562;-77
2023/04/07 06:17:04;;;;;;;24.98;14.63;;;7.10;99.90;;;;;;5075774;28;20040;-79
2023/04/07 06:19:31;;;;;;;23.70;13.75;;;7.10;99.90;;;;;;5087120;28;20052;-79
2023/04/07 06:21:57;;;;;;;27.55;14.60;;;7.10;99.90;;;;;;5092712;28;20040;-76
2023/04/07 06:24:24;;;;;;;26.38;14.75;;;7.10;99.90;;;;;;5093245;28;20086;-78
2023/04/07 06:26:51;;;;;;;21.05;14.20;;;7.00;99.90;;;;;;5093185;28;20403;-76
2023/04/07 06:29:17;;;;;;;24.77;15.13;;;7.10;99.90;;;;;;5111772;28;20043;-75
2023/04/07 06:31:42;;;;;;;25.17;13.82;;;7.70;99.90;;;;;;5113408;28;20050;-74
2023/04/07 06:34:08;;;;;;;23.48;14.02;;;7.10;99.90;;;;;;5102387;28;20132;-75
2023/04/07 06:36:34;;;;;;;20.88;13.60;;;7.20;99.90;;;;;;5093071;28;20052;-73
2023/04/07 06:39:00;;;;;;;21.97;14.23;;;7.10;99.90;;;;;;5089176;28;20051;-74
2023/04/07 06:41:25;;;;;;;22.67;13.55;;;7.10;99.90;;;;;;5091096;28;20040;-75
2023/04/07 06:43:51;;;;;;;21.23;13.27;;;7.10;99.90;;;;;;5082412;28;20488;-75
2023/04/07 06:46:17;;;;;;;22.70;13.50;;;7.20;99.90;;;;;;5076600;28;20040;-79
2023/04/07 06:48:43;;;;;;;21.67;13.77;;;7.10;99.90;;;;;;5084579;28;20059;-77
2023/04/07 06:51:08;;;;;;;23.88;14.45;;;7.20;99.90;;;;;;5083591;28;20297;-77
2023/04/07 06:53:34;;;;;;;23.65;13.52;;;7.20;99.90;;;;;;5083922;28;20067;-75
2023/04/07 06:56:08;;;;;;;21.40;13.18;;;7.20;99.90;;;;;;5085319;28;20487;-77
2023/04/07 06:58:35;;;;;;;22.15;13.60;;;7.20;99.90;;;;;;5088970;28;20040;-75
2023/04/07 07:01:04;;;;;;;20.05;13.27;;;7.30;99.90;;;;;;5085656;28;20174;-82
2023/04/07 07:03:30;;;;;;;23.67;14.07;;;7.30;99.90;;;;;;5071589;28;20552;-79
2023/04/07 07:05:56;;;;;;;18.73;13.13;;;7.40;99.90;;;;;;5082050;28;20163;-83
2023/04/07 07:08:22;;;;;;;19.60;12.90;;;7.50;99.90;;;;;;5089472;28;20051;-83
2023/04/07 07:10:48;;;;;;;19.50;13.52;;;7.50;99.90;;;;;;5093734;28;20050;-80
2023/04/07 07:13:14;;;;;;;19.50;12.93;;;7.50;99.90;;;;;;5094101;28;20492;-81
2023/04/07 07:15:39;;;;;;;20.90;13.93;;;7.60;99.90;;;;;;5097034;28;20079;-82
2023/04/07 07:18:05;;;;;;;21.60;13.55;;;7.60;99.90;;;;;;5093133;28;20093;-83
2023/04/07 07:20:31;;;;;;;20.33;13.13;;;7.60;99.90;;;;;;5094464;28;20110;-81
2023/04/07 07:22:58;;;;;;;22.73;13.43;;;7.70;99.90;;;;;;5095393;28;20098;-77
2023/04/07 07:25:26;;;;;;;23.10;13.52;;;7.70;99.90;;;;;;5093628;28;20076;-77
2023/04/07 07:27:52;;;;;;;19.30;13.05;;;8.30;99.90;;;;;;5095990;28;20364;-79
2023/04/07 07:30:22;;;;;;;21.35;13.55;;;8.10;99.90;;;;;;5063942;28;20048;-75
2023/04/07 07:32:48;;;;;;;21.30;14.60;;;7.90;99.90;;;;;;5075462;28;20040;-75
2023/04/07 07:35:14;;;;;;;20.03;13.33;;;8.10;99.90;;;;;;5082919;28;20043;-74
2023/04/07 07:37:40;;;;;;;20.80;14.07;;;8.00;99.90;;;;;;5074751;28;20794;-75
2023/04/07 07:40:06;;;;;;;24.45;15.32;;;8.00;99.90;;;;;;5075072;28;20374;-75
2023/04/07 07:42:32;;;;;;;21.38;13.90;;;8.10;99.90;;;;;;5075788;28;20059;-74
2023/04/07 07:44:58;;;;;;;21.25;14.20;;;8.10;99.90;;;;;;5075364;28;20033;-75
2023/04/07 07:47:25;;;;;;;22.83;14.70;;;8.10;99.90;;;;;;5075506;28;20052;-75
2023/04/07 07:49:50;;;;;;;22.08;14.80;;;8.20;99.90;;;;;;5075779;28;20056;-76
2023/04/07 07:52:16;;;;;;;24.77;15.13;;;8.20;99.90;;;;;;5075527;28;20491;-75
2023/04/07 07:54:42;;;;;;;24.05;15.10;;;8.20;99.90;;;;;;5075686;28;20044;-75
2023/04/07 07:57:07;;;;;;;22.75;14.85;;;8.30;99.90;;;;;;5075477;28;20123;-75
2023/04/07 07:59:33;;;;;;;23.42;14.85;;;8.30;99.90;;;;;;5075323;28;20049;-75
2023/04/07 08:01:59;;;;;;;22.98;15.55;;;8.70;99.90;;;;;;5075281;28;20048;-75
2023/04/07 08:04:25;;;;;;;22.20;15.25;;;8.30;99.90;;;;;;5075260;28;20396;-75
2023/04/07 08:06:52;;;;;;;23.73;14.70;;;8.30;99.90;;;;;;5075128;28;20045;-75
2023/04/07 08:09:18;;;;;;;22.98;15.45;;;8.40;99.90;;;;;;5075175;28;20151;-75
2023/04/07 08:11:44;;;;;;;22.70;15.13;;;8.50;99.90;;;;;;5075349;28;20036;-75
2023/04/07 08:14:10;;;;;;;27.92;16.60;;;8.40;99.90;;;;;;5075073;28;20124;-75
2023/04/07 08:16:35;;;;;;;24.38;15.38;;;8.40;99.90;;;;;;5074564;28;20080;-75
2023/04/07 08:19:01;;;;;;;23.50;15.75;;;8.40;99.90;;;;;;5075119;28;20049;-75
2023/04/07 08:21:27;;;;;;;25.92;16.55;;;8.40;99.90;;;;;;5075338;28;20376;-75
2023/04/07 08:23:54;;;;;;;25.33;16.52;;;8.40;99.90;;;;;;5074830;28;20040;-75
2023/04/07 08:26:20;;;;;;;25.95;17.00;;;8.50;99.90;;;;;;5074543;28;20080;-74
2023/04/07 08:28:46;;;;;;;24.77;16.10;;;8.50;99.90;;;;;;5074897;28;20059;-75
2023/04/07 08:31:12;;;;;;;20.67;14.47;;;8.70;99.90;;;;;;5074445;28;20419;-75
2023/04/07 08:33:37;;;;;;;22.33;14.77;;;8.90;99.90;;;;;;5074692;28;20045;-75
2023/04/07 08:36:03;;;;;;;23.13;14.68;;;8.40;99.90;;;;;;5074752;28;20047;-75
2023/04/07 08:38:30;;;;;;;25.13;15.38;;;8.40;99.90;;;;;;5074682;28;20101;-76
2023/04/07 08:41:03;;;;;;;27.63;17.02;;;8.50;99.90;;;;;;5074473;28;20045;-75
2023/04/07 08:43:29;;;;;;;24.50;16.20;;;8.60;99.90;;;;;;5074447;28;20051;-75
2023/04/07 08:45:56;;;;;;;17.75;12.10;;;8.60;99.90;;;;;;5074442;28;20048;-75
2023/04/07 08:48:26;;;;;;;15.65;10.20;;;8.70;99.90;;;;;;5073941;28;20052;-75
2023/04/07 08:50:52;;;;;;;14.05;9.43;;;8.80;99.90;;;;;;5074253;28;20498;-75
2023/04/07 08:53:28;;;;;;;11.95;8.88;;;8.90;99.90;;;;;;5074885;28;20044;-76
2023/04/07 08:55:57;;;;;;;11.65;8.60;;;8.90;99.90;;;;;;5074365;28;20040;-75
2023/04/07 08:58:23;;;;;;;10.48;7.72;;;9.00;99.90;;;;;;5074141;28;20043;-75
2023/04/07 09:00:50;;;;;;;12.70;7.93;;;9.00;99.90;;;;;;5074168;28;20048;-75
2023/04/07 09:03:16;;;;;;;13.27;7.60;;;9.00;99.90;;;;;;5074046;28;20143;-74
2023/04/07 09:05:45;;;;;;;10.32;7.18;;;9.00;99.90;;;;;;5073686;28;20494;-76
2023/04/07 09:08:10;;;;;;;8.35;6.28;;;9.00;99.90;;;;;;5073981;28;20045;-76
2023/04/07 09:10:36;;;;;;;9.93;6.35;;;9.00;99.90;;;;;;5073860;28;20506;-75
2023/04/07 09:13:02;;;;;;;7.78;5.97;;;9.00;99.90;;;;;;5074314;28;20055;-76
2023/04/07 09:15:31;;;;;;;11.18;6.78;;;9.00;99.90;;;;;;5074089;28;20036;-76
2023/04/07 09:17:58;;;;;;;10.25;6.80;;;9.60;99.90;;;;;;5073874;28;20048;-75
2023/04/07 09:20:24;;;;;;;8.82;6.40;;;9.10;99.90;;;;;;5073854;28;20146;-75
2023/04/07 09:22:50;;;;;;;8.45;5.88;;;9.20;99.90;;;;;;5073779;28;20044;-75
2023/04/07 09:25:28;;;;;;;9.45;6.25;;;9.20;99.90;;;;;;5073604;28;20052;-75
2023/04/07 09:27:59;;;;;;;8.32;6.25;;;9.30;99.90;;;;;;5073841;28;20048;-75
2023/04/07 09:30:26;;;;;;;10.02;6.18;;;9.30;99.90;;;;;;5073687;28;20045;-75
2023/04/07 09:32:52;;;;;;;9.95;6.80;;;9.40;99.90;;;;;;5073667;28;20049;-75
2023/04/07 09:35:18;;;;;;;9.32;6.35;;;9.40;99.90;;;;;;5073818;28;20468;-75
2023/04/07 09:37:43;;;;;;;8.88;6.63;;;9.50;99.90;;;;;;5073695;28;20132;-75
2023/04/07 09:40:09;;;;;;;10.65;6.38;;;9.60;99.90;;;;;;5073266;28;20041;-75
2023/04/07 09:42:43;;;;;;;7.68;5.53;;;9.70;99.90;;;;;;5073469;28;20045;-75
2023/04/07 09:45:09;;;;;;;7.97;5.30;;;9.70;99.90;;;;;;5073557;28;20045;-76
2023/04/07 09:47:34;;;;;;;7.23;5.63;;;9.70;99.90;;;;;;5073530;28;20070;-76
2023/04/07 09:50:05;;;;;;;8.30;5.70;;;9.90;99.90;;;;;;5073558;28;20052;-75
2023/04/07 09:52:54;;;;;;;8.10;5.80;;;9.70;99.90;;;;;;5073562;28;20408;-75
2023/04/07 09:55:21;;;;;;;7.35;5.35;;;9.70;99.90;;;;;;5073782;28;20036;-76
2023/04/07 09:57:49;;;;;;;8.23;5.53;;;10.00;99.90;;;;;;5073307;28;20108;-76
2023/04/07 10:00:15;;;;;;;11.30;6.50;;;10.10;99.90;;;;;;5073341;28;20047;-75
2023/04/07 10:02:42;;;;;;;9.43;5.37;;;10.30;99.90;;;;;;5073207;28;20052;-76
2023/04/07 10:05:08;;;;;;;6.82;5.00;;;10.40;99.90;;;;;;5072919;28;20041;-76
2023/04/07 10:07:34;;;;;;;7.32;5.60;;;10.40;99.90;;;;;;5073708;28;20128;-76
2023/04/07 10:10:00;;;;;;;8.35;5.97;;;10.50;99.90;;;;;;5073319;28;20080;-76
2023/04/07 10:12:26;;;;;;;9.38;6.18;;;10.70;99.90;;;;;;5073290;28;20088;-76
2023/04/07 10:14:53;;;;;;;7.90;5.38;;;10.50;99.90;;;;;;5073534;28;20040;-76
2023/04/07 10:17:21;;;;;;;11.13;5.95;;;10.40;99.90;;;;;;5073329;28;20045;-77
2023/04/07 10:19:49;;;;;;;9.02;6.03;;;10.30;99.90;;;;;;5073136;28;20085;-76
2023/04/07 10:22:15;;;;;;;8.27;5.70;;;10.20;99.90;;;;;;5073617;28;20166;-76
2023/04/07 10:24:56;;;;;;;8.32;6.13;;;10.10;99.90;;;;;;5072846;28;20477;-76
2023/04/07 10:27:41;;;;;;;9.40;6.82;;;10.10;99.90;;;;;;5073342;28;20036;-75
2023/04/07 10:30:14;;;;;;;8.98;6.35;;;9.90;99.90;;;;;;5073055;28;20139;-76
2023/04/07 10:32:51;;;;;;;9.00;6.57;;;9.90;99.90;;;;;;5073237;28;20041;-76
2023/04/07 10:35:17;;;;;;;9.35;6.40;;;9.80;99.90;;;;;;5073088;28;20136;-76
2023/04/07 10:38:15;;;;;;;10.40;7.05;;;9.80;99.90;;;;;;5073402;28;20084;-76
2023/04/07 10:40:41;;;;;;;10.37;7.10;;;9.70;99.90;;;;;;5074803;28;20139;-76
2023/04/07 10:43:10;;;;;;;9.02;6.85;;;9.80;99.90;;;;;;5076787;28;20060;-76
2023/04/07 10:45:47;;;;;;;8.43;6.25;;;9.80;99.90;;;;;;5076650;28;20040;-76
2023/04/07 10:48:17;;;;;;;9.38;6.38;;;10.40;99.90;;;;;;5076262;28;20041;-76
2023/04/07 10:50:44;;;;;;;8.48;5.82;;;9.90;99.90;;;;;;5076513;28;20594;-76
2023/04/07 10:53:14;;;;;;;10.80;6.13;;;9.90;99.90;;;;;;5076525;28;20141;-76
2023/04/07 10:55:44;;;;;;;9.18;6.00;;;9.90;99.90;;;;;;5077110;28;20072;-76
2023/04/07 10:58:23;;;;;;;6.82;5.20;;;10.00;99.90;;;;;;5076482;28;20044;-76
2023/04/07 11:01:10;;;;;;;6.78;5.13;;;10.00;99.90;;;;;;5076457;28;20049;-75
2023/04/07 11:03:39;;;;;;;8.25;5.57;;;9.90;99.90;;;;;;5076223;28;20088;-76
2023/04/07 11:06:07;;;;;;;6.60;5.25;;;9.90;99.90;;;;;;5076335;28;20043;-75
2023/04/07 11:08:39;;;;;;;10.25;5.75;;;9.90;99.90;;;;;;5076340;28;20045;-76
2023/04/07 11:11:07;;;;;;;8.82;5.63;;;9.80;99.90;;;;;;5076590;28;20178;-75
2023/04/07 11:13:49;;;;;;;9.13;6.50;;;9.70;99.90;;;;;;5076412;28;20040;-76
2023/04/07 11:16:17;;;;;;;7.20;5.78;;;10.20;99.90;;;;;;5076084;28;20101;-75
2023/04/07 11:18:44;;;;;;;9.20;6.53;;;9.60;99.90;;;;;;5076073;28;20055;-75
2023/04/07 11:21:10;;;;;;;12.10;7.20;;;9.60;99.90;;;;;;5076360;28;20044;-75
2023/04/07 11:23:42;;;;;;;9.77;6.95;;;9.60;99.90;;;;;;5076212;28;20048;-75
2023/04/07 11:26:10;;;;;;;10.85;7.35;;;9.60;99.90;;;;;;5076018;28;20044;-75
2023/04/07 11:28:45;;;;;;;9.95;7.10;;;9.60;99.90;;;;;;5076116;28;20083;-77
2023/04/07 11:31:11;;;;;;;9.30;6.85;;;9.60;99.90;;;;;;5075950;28;20502;-75
2023/04/07 11:33:38;;;;;;;12.18;7.47;;;10.00;99.90;;;;;;5076002;28;20036;-75
2023/04/07 11:36:05;;;;;;;;;;;9.70;99.90;;;;;;5076185;28;20033;-75
2023/04/07 11:38:36;;;;;;;11.63;7.63;;;9.70;99.90;;;;;;5075869;28;20318;-75
2023/04/07 11:41:13;;;;;;;11.07;6.70;;;9.80;99.90;;;;;;5075911;28;20051;-75
2023/04/07 11:43:42;;;;;;;10.13;6.95;;;9.90;99.90;;;;;;5075600;28;20045;-75
2023/04/07 11:46:10;;;;;;;9.68;7.32;;;9.90;99.90;;;;;;5075727;28;20032;-75
2023/04/07 11:48:37;;;;;;;10.70;7.13;;;9.90;99.90;;;;;;5075732;28;20127;-76
2023/04/07 11:51:03;;;;;;;8.90;6.40;;;9.80;99.90;;;;;;5075548;28;20036;-76
2023/04/07 11:53:36;;;;;;;8.82;5.88;;;10.00;99.90;;;;;;5075069;28;20484;-76
2023/04/07 11:56:04;;;;;;;11.30;5.28;;;10.10;99.90;;;;;;5075532;28;20127;-75
2023/04/07 11:58:30;;;;;;;9.05;5.68;;;10.20;99.90;;;;;;5075508;28;20396;-75
2023/04/07 12:00:57;;;;;;;7.13;5.10;;;10.30;99.90;;;;;;5075485;28;20048;-76
2023/04/07 12:03:23;;;;;;;;;;;10.40;99.90;;;;;;5075831;28;20045;-75
2023/04/07 12:05:48;;;;;;;8.27;5.43;;;10.50;99.90;;;;;;5075477;28;20023;-76
2023/04/07 12:08:18;;;;;;;7.60;5.20;;;10.50;99.90;;;;;;5075280;28;20040;-75
2023/04/07 12:10:44;;;;;;;7.45;5.60;;;10.60;99.90;;;;;;5075830;28;20063;-75
2023/04/07 12:13:12;;;;;;;8.90;6.33;;;10.60;99.90;;;;;;5075397;28;20404;-76
2023/04/07 12:15:38;;;;;;;8.50;5.38;;;10.70;99.90;;;;;;5075050;28;20542;-76
2023/04/07 12:18:04;;;;;;;7.47;5.40;;;10.70;99.90;;;;;;5075122;28;20132;-75
2023/04/07 12:20:30;;;;;;;8.83;6.03;;;10.70;99.90;;;;;;5075947;28;20036;-75
2023/04/07 12:22:57;;;;;;;12.40;5.95;;;10.70;99.90;;;;;;5075938;28;20052;-75
2023/04/07 12:25:23;;;;;;;7.95;6.05;;;10.80;99.90;;;;;;5078031;28;20051;-75
2023/04/07 12:27:48;;;;;;;8.88;5.72;;;11.00;99.90;;;;;;5085142;28;20044;-74
2023/04/07 12:30:14;;;;;;;7.72;5.72;;;11.00;99.90;;;;;;5083731;28;20037;-74
2023/04/07 12:32:40;;;;;;;8.07;5.07;;;11.20;99.90;;;;;;5082973;28;20044;-75
2023/04/07 12:35:05;;;;;;;7.15;5.25;;;11.30;99.90;;;;;;5079633;28;20040;-76
2023/04/07 12:37:31;;;;;;;7.85;5.72;;;11.30;99.90;;;;;;5078430;28;20048;-76
2023/04/07 12:39:58;;;;;;;7.53;5.68;;;11.40;99.90;;;;;;5074778;28;20128;-76
2023/04/07 12:42:24;;;;;;;7.32;5.32;;;11.40;99.90;;;;;;5075003;28;20045;-75
2023/04/07 12:44:50;;;;;;;8.27;5.68;;;11.50;99.90;;;;;;5074523;28;20040;-75